Time;durP1;ratioP1;P1;durP2;ratioP2;P2;SDS_P1;SDS_P2;PMS_P1;PMS_P2;Temp;Humidity;BMP_temperature;BMP_pressure;BME280_temperature;BME280_humidity;BME280_pressure;Samples;Min_cycle;Max_cycle;Signal;HPM_P1;HPM_P2
2021/10/12 00:02:13;;;;;;;8.57;2.00;;;;;;;11.28;88.75;102441.25;5056294;28;20020;-65
2021/10/12 00:04:38;;;;;;;10.07;1.73;;;;;;;11.27;88.38;102444.78;5039010;28;20146;-65
2021/10/12 00:07:08;;;;;;;11.02;2.20;;;;;;;11.18;88.84;102445.69;5055814;28;20033;-65
2021/10/12 00:09:34;;;;;;;10.10;2.10;;;;;;;11.17;89.25;102442.28;5055833;28;20032;-65
2021/10/12 00:11:59;;;;;;;13.10;2.42;;;;;;;11.24;88.38;102432.16;5056003;28;20094;-65
2021/10/12 00:14:24;;;;;;;7.85;2.15;;;;;;;11.26;88.40;102435.41;5056252;28;20460;-65
2021/10/12 00:16:50;;;;;;;8.48;2.20;;;;;;;11.24;88.45;102425.19;5054707;28;20029;-65
2021/10/12 00:19:15;;;;;;;12.15;2.47;;;;;;;11.20;88.72;102436.81;5055968;28;20021;-65
2021/10/12 00:21:41;;;;;;;11.38;2.30;;;;;;;11.14;89.21;102440.00;5055786;28;20051;-65
2021/10/12 00:24:06;;;;;;;8.85;2.00;;;;;;;11.20;88.98;102436.00;5056456;28;20036;-65
2021/10/12 00:26:31;;;;;;;9.65;2.38;;;;;;;11.24;89.47;102429.56;5055759;28;20025;-65
2021/10/12 00:28:57;;;;;;;8.68;2.10;;;;;;;11.26;88.33;102423.28;5054392;28;20033;-65
2021/10/12 00:31:22;;;;;;;12.50;2.38;;;;;;;11.30;88.16;102414.22;5054064;28;20361;-66
2021/10/12 00:33:47;;;;;;;8.48;2.20;;;;;;;11.10;88.35;102396.47;5055204;28;20139;-65
2021/10/12 00:36:12;;;;;;;8.57;1.88;;;;;;;11.18;88.71;102410.28;5055160;28;20075;-65
2021/10/12 00:38:38;;;;;;;12.07;1.95;;;;;;;11.15;87.66;102407.19;5055160;28;20032;-65
2021/10/12 00:41:07;;;;;;;10.18;2.00;;;;;;;11.21;88.23;102414.34;5054971;28;20476;-65
2021/10/12 00:43:34;;;;;;;8.00;2.10;;;;;;;11.16;88.34;102411.38;5055197;28;20029;-65
2021/10/12 00:45:59;;;;;;;12.68;1.80;;;;;;;11.20;87.62;102413.53;5055073;28;20029;-65
2021/10/12 00:48:24;;;;;;;10.80;1.92;;;;;;;11.18;88.23;102407.69;5055253;28;20059;-65
2021/10/12 00:50:50;;;;;;;9.38;1.58;;;;;;;11.23;87.73;102405.47;5055001;28;20017;-65
2021/10/12 00:53:15;;;;;;;11.90;1.92;;;;;;;11.23;87.53;102399.47;5053750;28;20029;-65
2021/10/12 00:55:41;;;;;;;9.07;1.80;;;;;;;11.16;87.56;102403.63;5054794;28;20041;-65
2021/10/12 00:58:09;;;;;;;10.55;1.77;;;;;;;11.20;87.94;102404.97;5054915;28;20029;-65
2021/10/12 01:00:36;;;;;;;9.93;1.83;;;;;;;11.16;86.95;102401.03;5053425;28;20051;-64
2021/10/12 01:03:01;;;;;;;9.75;1.73;;;;;;;11.06;86.98;102396.75;5054047;28;20033;-65
2021/10/12 01:05:27;;;;;;;10.65;1.95;;;;;;;11.07;87.52;102394.97;5054944;28;20048;-66
2021/10/12 01:07:52;;;;;;;8.35;1.85;;;;;;;11.03;87.69;102391.09;5054668;28;20054;-66
2021/10/12 01:10:18;;;;;;;9.63;1.67;;;;;;;11.07;87.96;102389.81;5054530;28;20017;-65
2021/10/12 01:12:44;;;;;;;9.43;1.88;;;;;;;11.04;87.65;102390.91;5054831;28;20070;-66
2021/10/12 01:15:09;;;;;;;13.27;1.90;;;;;;;11.05;87.48;102381.41;5054527;28;20060;-66
2021/10/12 01:17:36;;;;;;;7.05;1.55;;;;;;;11.04;86.91;102387.53;5054463;28;20032;-65
2021/10/12 01:20:04;;;;;;;8.45;1.63;;;;;;;11.02;87.37;102389.47;5054352;28;20025;-65
2021/10/12 01:22:29;;;;;;;11.52;1.30;;;;;;;11.02;86.98;102379.13;5054300;28;20127;-65
2021/10/12 01:24:54;;;;;;;11.07;1.70;;;;;;;11.03;86.94;102376.38;5054275;28;20060;-65
2021/10/12 01:27:22;;;;;;;7.70;1.60;;;;;;;11.11;87.18;102373.03;5054259;28;20379;-65
2021/10/12 01:29:47;;;;;;;9.77;1.55;;;;;;;10.92;86.51;102342.19;5052947;28;20159;-65
2021/10/12 01:32:13;;;;;;;7.88;1.63;;;;;;;11.01;86.55;102354.19;5054198;28;20056;-66
2021/10/12 01:34:38;;;;;;;5.75;1.30;;;;;;;10.90;86.40;102355.25;5054062;28;20028;-66
2021/10/12 01:37:03;;;;;;;7.28;1.30;;;;;;;10.92;87.50;102358.50;5052831;28;20032;-65
2021/10/12 01:39:29;;;;;;;8.02;1.30;;;;;;;10.94;86.68;102354.00;5054097;28;20051;-64
2021/10/12 01:41:54;;;;;;;7.68;1.30;;;;;;;10.99;87.05;102350.94;5053745;28;20055;-67
2021/10/12 01:44:20;;;;;;;9.55;2.03;;;;;;;10.96;86.55;102348.66;5053946;28;20075;-65
2021/10/12 01:46:45;;;;;;;8.70;1.40;;;;;;;10.95;86.74;102337.50;5053958;28;20025;-65
2021/10/12 01:49:10;;;;;;;8.27;1.50;;;;;;;10.99;87.39;102338.00;5053896;28;20375;-66
2021/10/12 01:51:36;;;;;;;10.80;1.63;;;;;;;11.01;87.65;102330.91;5053901;28;20027;-65
2021/10/12 01:54:03;;;;;;;7.50;1.45;;;;;;;10.94;87.44;102327.31;5053732;28;20060;-67
2021/10/12 01:56:29;;;;;;;6.35;1.20;;;;;;;10.97;87.70;102329.59;5053853;28;20044;-65
2021/10/12 01:58:55;;;;;;;11.15;1.50;;;;;;;10.95;87.71;102316.00;5053700;28;20028;-66
2021/10/12 02:01:21;;;;;;;11.43;1.52;;;;;;;10.88;87.90;102315.81;5053545;28;20029;-65
2021/10/12 02:03:47;;;;;;;6.55;1.27;;;;;;;10.81;88.58;102307.81;5053656;28;20079;-66
2021/10/12 02:06:13;;;;;;;8.90;1.80;;;;;;;10.87;88.25;102308.19;5053868;28;20029;-65
2021/10/12 02:08:39;;;;;;;9.27;1.58;;;;;;;10.85;88.34;102308.34;5053573;28;20036;-65
2021/10/12 02:11:04;;;;;;;9.60;1.55;;;;;;;10.92;88.73;102298.22;5053711;28;20025;-66
2021/10/12 02:13:30;;;;;;;8.02;1.52;;;;;;;10.81;87.95;102302.66;5052987;28;20036;-67
2021/10/12 02:15:55;;;;;;;5.93;1.27;;;;;;;10.94;87.42;102297.09;5054205;28;20082;-65
2021/10/12 02:18:20;;;;;;;5.95;1.40;;;;;;;10.93;87.91;102298.03;5054309;28;20045;-65
2021/10/12 02:20:46;;;;;;;6.35;1.25;;;;;;;10.94;88.02;102285.94;5053688;28;20032;-66
2021/10/12 02:23:11;;;;;;;6.28;1.60;;;;;;;10.99;87.91;102283.69;5053706;28;20029;-66
2021/10/12 02:25:36;;;;;;;8.18;1.40;;;;;;;11.01;87.63;102281.78;5054167;28;20494;-65
2021/10/12 02:28:02;;;;;;;5.70;1.20;;;;;;;10.96;88.20;102273.66;5053647;28;20463;-66
2021/10/12 02:30:27;;;;;;;8.77;1.23;;;;;;;10.88;88.13;102276.22;5053868;28;20070;-66
2021/10/12 02:32:52;;;;;;;8.63;1.40;;;;;;;10.87;88.34;102270.19;5053534;28;20461;-65
2021/10/12 02:35:18;;;;;;;10.30;1.75;;;;;;;10.87;88.87;102272.78;5053645;28;20064;-66
2021/10/12 02:37:43;;;;;;;8.00;1.63;;;;;;;10.86;88.60;102266.00;5053753;28;20032;-66
2021/10/12 02:40:09;;;;;;;7.05;1.40;;;;;;;10.99;87.74;102269.00;5053351;28;20020;-66
2021/10/12 02:42:34;;;;;;;5.63;1.30;;;;;;;10.97;88.53;102259.78;5053296;28;20132;-66
2021/10/12 02:45:00;;;;;;;7.40;1.67;;;;;;;10.97;88.61;102259.78;5053976;28;20056;-66
2021/10/12 02:47:25;;;;;;;12.55;1.85;;;;;;;10.93;89.06;102261.03;5053353;28;20025;-66
2021/10/12 02:49:50;;;;;;;8.35;1.33;;;;;;;10.98;89.14;102259.59;5053376;28;20029;-66
2021/10/12 02:52:15;;;;;;;4.57;1.35;;;;;;;11.00;89.47;102262.84;5053352;28;20009;-66
2021/10/12 02:54:41;;;;;;;6.57;1.20;;;;;;;10.96;89.12;102268.47;5053314;28;20021;-66
2021/10/12 02:57:06;;;;;;;4.55;1.25;;;;;;;11.00;89.80;102265.44;5051968;28;20055;-64
2021/10/12 02:59:31;;;;;;;6.15;1.25;;;;;;;11.03;89.54;102251.41;5053234;28;20092;-65
2021/10/12 03:01:56;;;;;;;9.98;1.80;;;;;;;11.10;89.33;102239.44;5053174;28;20021;-65
2021/10/12 03:04:22;;;;;;;9.10;1.40;;;;;;;11.03;90.00;102241.03;5053227;28;20036;-65
2021/10/12 03:06:47;;;;;;;9.38;1.70;;;;;;;10.84;90.91;102229.13;5053251;28;20547;-65
2021/10/12 03:09:12;;;;;;;8.75;1.60;;;;;;;10.77;90.76;102208.25;5053185;28;20104;-65
2021/10/12 03:11:37;;;;;;;10.05;1.50;;;;;;;10.78;91.43;102199.53;5053129;28;20020;-65
2021/10/12 03:14:03;;;;;;;9.32;1.65;;;;;;;10.82;91.39;102200.06;5053918;28;20057;-65
2021/10/12 03:16:28;;;;;;;7.78;1.90;;;;;;;10.84;90.83;102187.75;5053328;28;20048;-65
2021/10/12 03:18:53;;;;;;;7.63;1.40;;;;;;;10.79;91.05;102197.78;5053057;28;20031;-64
2021/10/12 03:21:20;;;;;;;5.57;1.40;;;;;;;10.86;90.94;102188.41;5052941;28;20052;-65
2021/10/12 03:23:45;;;;;;;5.00;1.52;;;;;;;10.86;90.40;102195.38;5053064;28;20033;-65
2021/10/12 03:26:11;;;;;;;11.25;1.70;;;;;;;10.84;90.02;102188.56;5055538;28;20029;-65
2021/10/12 03:28:36;;;;;;;6.43;1.50;;;;;;;10.86;90.68;102190.19;5056935;28;20032;-65
2021/10/12 03:31:01;;;;;;;10.35;1.70;;;;;;;10.75;90.96;102189.50;5057170;28;20013;-65
2021/10/12 03:33:27;;;;;;;8.02;1.88;;;;;;;10.72;90.90;102194.16;5056816;28;20036;-65
2021/10/12 03:36:00;;;;;;;8.52;1.80;;;;;;;10.72;90.51;102191.56;5056718;28;20078;-65
2021/10/12 03:38:27;;;;;;;7.30;1.77;;;;;;;10.73;90.88;102194.03;5057071;28;20486;-65
2021/10/12 03:40:53;;;;;;;7.15;1.85;;;;;;;10.70;90.63;102191.72;5056857;28;20407;-65
2021/10/12 03:43:19;;;;;;;8.18;1.85;;;;;;;10.66;90.86;102187.03;5056523;28;20044;-65
2021/10/12 03:45:45;;;;;;;6.35;1.80;;;;;;;10.60;90.83;102183.28;5056627;28;20029;-65
2021/10/12 03:48:10;;;;;;;9.38;2.40;;;;;;;10.64;91.10;102179.41;5056795;28;20028;-65
2021/10/12 03:50:36;;;;;;;6.40;1.67;;;;;;;10.67;90.91;102175.72;5056495;28;20021;-65
2021/10/12 03:53:01;;;;;;;6.45;1.40;;;;;;;10.75;90.75;102175.75;5056466;28;20383;-65
2021/10/12 03:55:27;;;;;;;8.13;2.40;;;;;;;10.66;91.09;102169.72;5056658;28;20028;-65
2021/10/12 03:57:52;;;;;;;7.85;1.80;;;;;;;10.64;90.83;102165.69;5056599;28;20491;-65
2021/10/12 04:00:18;;;;;;;7.68;1.90;;;;;;;10.70;90.86;102172.81;5056226;28;20111;-65
2021/10/12 04:02:44;;;;;;;5.30;1.70;;;;;;;10.76;91.19;102167.03;5056436;28;20029;-65
2021/10/12 04:05:09;;;;;;;8.07;2.00;;;;;;;10.74;91.02;102158.63;5056171;28;20456;-65
2021/10/12 04:07:34;;;;;;;7.85;2.08;;;;;;;10.79;90.50;102167.56;5056235;28;20075;-65
2021/10/12 04:09:59;;;;;;;10.90;2.30;;;;;;;10.86;90.40;102161.75;5056184;28;20380;-65
2021/10/12 04:12:25;;;;;;;11.23;2.00;;;;;;;10.86;90.55;102159.16;5056354;28;20017;-65
2021/10/12 04:14:50;;;;;;;9.68;2.35;;;;;;;10.76;91.12;102151.50;5055974;28;20016;-65
2021/10/12 04:17:15;;;;;;;10.00;2.08;;;;;;;10.76;91.60;102147.19;5056051;28;20064;-65
2021/10/12 04:19:41;;;;;;;7.25;2.13;;;;;;;10.74;91.65;102156.03;5055990;28;20511;-65
2021/10/12 04:22:06;;;;;;;10.38;2.15;;;;;;;10.74;91.56;102143.91;5056045;28;20029;-66
2021/10/12 04:24:31;;;;;;;8.05;2.10;;;;;;;10.72;91.60;102135.50;5055844;28;20024;-65
2021/10/12 04:26:57;;;;;;;7.07;2.00;;;;;;;10.80;91.93;102130.38;5056091;28;20025;-66
2021/10/12 04:29:22;;;;;;;6.25;2.10;;;;;;;10.80;91.03;102125.19;5056083;28;20024;-65
2021/10/12 04:31:48;;;;;;;7.90;2.35;;;;;;;10.95;91.03;102132.38;5055720;28;20025;-66
2021/10/12 04:34:13;;;;;;;11.52;2.60;;;;;;;10.94;90.98;102130.75;5055690;28;20025;-66
2021/10/12 04:36:38;;;;;;;8.02;2.33;;;;;;;10.90;91.15;102125.06;5054505;28;20395;-65
2021/10/12 04:39:05;;;;;;;9.60;2.50;;;;;;;11.00;91.18;102124.97;5055582;28;20025;-66
2021/10/12 04:41:31;;;;;;;9.82;2.28;;;;;;;10.94;91.21;102117.81;5055282;28;20049;-65
2021/10/12 04:43:57;;;;;;;9.02;2.53;;;;;;;11.05;91.26;102122.72;5056080;28;20032;-65
2021/10/12 04:46:22;;;;;;;7.80;2.35;;;;;;;11.11;91.26;102121.28;5055485;28;20480;-65
2021/10/12 04:48:47;;;;;;;11.82;2.63;;;;;;;11.06;91.27;102119.16;5055405;28;20041;-64
2021/10/12 04:51:13;;;;;;;10.68;2.50;;;;;;;11.12;91.44;102115.94;5055380;28;20380;-65
2021/10/12 04:53:38;;;;;;;9.70;2.40;;;;;;;11.17;91.49;102118.06;5054075;28;20037;-66
2021/10/12 04:56:03;;;;;;;12.63;2.33;;;;;;;11.03;91.94;102120.28;5054027;28;20028;-65
2021/10/12 04:58:29;;;;;;;9.88;2.47;;;;;;;11.03;92.00;102109.91;5055233;28;20081;-65
2021/10/12 05:00:54;;;;;;;11.80;3.08;;;;;;;11.02;91.60;102115.28;5055108;28;20029;-64
2021/10/12 05:03:21;;;;;;;8.90;2.33;;;;;;;11.10;91.82;102114.47;5053922;28;20032;-64
2021/10/12 05:05:46;;;;;;;10.80;2.33;;;;;;;11.13;92.02;102116.75;5055138;28;20471;-65
2021/10/12 05:08:11;;;;;;;9.93;2.47;;;;;;;11.13;91.98;102114.94;5055055;28;20032;-66
2021/10/12 05:10:37;;;;;;;8.15;2.53;;;;;;;11.10;92.04;102111.88;5054552;28;20029;-65
2021/10/12 05:13:02;;;;;;;8.05;2.35;;;;;;;11.09;91.75;102102.50;5054988;28;20048;-65
2021/10/12 05:15:29;;;;;;;8.43;2.50;;;;;;;11.01;92.03;102098.91;5055974;28;20110;-65
2021/10/12 05:17:55;;;;;;;10.57;2.78;;;;;;;11.01;92.31;102091.16;5053610;28;20494;-65
2021/10/12 05:20:21;;;;;;;9.93;2.70;;;;;;;11.04;91.82;102092.63;5054792;28;20033;-66
2021/10/12 05:22:47;;;;;;;9.50;3.13;;;;;;;11.08;92.91;102083.59;5054760;28;20120;-65
2021/10/12 05:25:13;;;;;;;8.48;2.90;;;;;;;11.02;92.00;102066.13;5054795;28;20024;-65
2021/10/12 05:27:38;;;;;;;9.32;3.00;;;;;;;11.03;92.23;102075.50;5055268;28;20329;-66
2021/10/12 05:30:10;;;;;;;11.90;3.10;;;;;;;11.01;92.66;102073.03;5054947;28;20455;-65
2021/10/12 05:32:37;;;;;;;7.72;2.85;;;;;;;11.04;92.44;102064.16;5054917;28;20499;-65
2021/10/12 05:35:04;;;;;;;16.83;3.63;;;;;;;10.97;92.48;102073.53;5054442;28;20052;-66
2021/10/12 05:37:29;;;;;;;14.98;3.45;;;;;;;10.97;92.98;102066.59;5054543;28;20052;-66
2021/10/12 05:39:55;;;;;;;10.43;3.60;;;;;;;11.07;92.30;102063.84;5054464;28;20032;-66
2021/10/12 05:42:20;;;;;;;10.48;3.38;;;;;;;11.06;92.40;102059.66;5054111;28;20045;-66
2021/10/12 05:44:45;;;;;;;10.93;3.33;;;;;;;11.02;92.36;102054.00;5054337;28;20082;-65
2021/10/12 05:47:10;;;;;;;19.48;4.80;;;;;;;10.99;92.38;102048.31;5054347;28;20029;-65
2021/10/12 05:49:40;;;;;;;10.10;3.45;;;;;;;11.01;92.71;102051.56;5054292;28;20028;-65
2021/10/12 05:52:05;;;;;;;14.32;3.60;;;;;;;10.96;92.48;102046.03;5054213;28;20100;-64
2021/10/12 05:54:34;;;;;;;11.25;3.83;;;;;;;10.94;92.70;102053.97;5054134;28;20048;-66
2021/10/12 05:57:05;;;;;;;11.15;3.65;;;;;;;10.94;92.79;102043.63;5052933;28;20016;-65
2021/10/12 05:59:30;;;;;;;11.45;3.90;;;;;;;10.94;92.78;102048.00;5054609;28;20104;-65
2021/10/12 06:01:55;;;;;;;14.30;4.00;;;;;;;10.97;92.05;102040.72;5053914;28;20446;-65
2021/10/12 06:04:21;;;;;;;11.32;4.07;;;;;;;10.85;92.52;102044.56;5053975;28;20029;-65
2021/10/12 06:06:46;;;;;;;12.57;3.70;;;;;;;10.89;92.67;102043.28;5053955;28;20035;-66
2021/10/12 06:09:11;;;;;;;14.15;4.05;;;;;;;10.88;92.69;102048.63;5052665;28;20396;-65
2021/10/12 06:11:37;;;;;;;19.40;4.75;;;;;;;10.87;93.15;102047.00;5053921;28;20027;-64
2021/10/12 06:14:02;;;;;;;12.90;4.10;;;;;;;10.90;92.78;102044.09;5053787;28;20460;-66
2021/10/12 06:16:27;;;;;;;11.25;3.78;;;;;;;10.92;92.49;102037.78;5052425;28;20083;-65
2021/10/12 06:18:53;;;;;;;8.82;3.63;;;;;;;10.94;92.25;102037.66;5053932;28;20025;-65
2021/10/12 06:21:18;;;;;;;11.68;4.20;;;;;;;10.94;92.91;102037.66;5053613;28;20036;-66
2021/10/12 06:23:43;;;;;;;8.75;3.72;;;;;;;11.00;92.55;102039.59;5053909;28;20024;-66
2021/10/12 06:26:09;;;;;;;16.80;4.00;;;;;;;10.97;92.96;102030.38;5053901;28;20478;-66
2021/10/12 06:28:34;;;;;;;13.15;4.20;;;;;;;11.06;92.26;102028.63;5054011;28;20037;-65
2021/10/12 06:31:00;;;;;;;11.93;3.63;;;;;;;11.07;92.25;102038.78;5054075;28;20032;-66
2021/10/12 06:36:47;;;;;;;12.07;3.90;;;;;;;11.16;92.56;102034.44;5053624;28;20048;-65
2021/10/12 06:39:12;;;;;;;15.85;4.20;;;;;;;11.14;92.82;102026.03;5053464;28;20025;-64
2021/10/12 06:41:37;;;;;;;10.50;3.80;;;;;;;11.23;92.83;102032.84;5053306;28;20048;-66
2021/10/12 06:44:03;;;;;;;11.40;3.92;;;;;;;11.24;92.51;102029.25;5053339;28;20032;-64
2021/10/12 06:46:28;;;;;;;11.88;3.92;;;;;;;11.36;91.93;102028.94;5053247;28;20077;-64
2021/10/12 06:48:53;;;;;;;16.33;3.88;;;;;;;11.34;92.23;102029.13;5053374;28;20025;-65
2021/10/12 06:51:19;;;;;;;16.38;3.42;;;;;;;11.33;92.22;102029.28;5053242;28;20021;-65
2021/10/12 06:53:46;;;;;;;10.98;3.22;;;;;;;11.35;92.38;102033.31;5053771;28;20037;-65
2021/10/12 06:56:12;;;;;;;10.52;3.25;;;;;;;11.44;91.66;102024.59;5053259;28;20029;-64
2021/10/12 06:58:39;;;;;;;16.02;3.83;;;;;;;11.55;91.95;102027.84;5053139;28;20036;-64
2021/10/12 07:01:04;;;;;;;10.68;3.15;;;;;;;11.62;91.65;102028.78;5055638;28;20108;-64
2021/10/12 07:03:29;;;;;;;11.38;4.20;;;;;;;11.70;90.90;102026.19;5057622;28;20059;-63
2021/10/12 07:05:55;;;;;;;14.85;3.50;;;;;;;11.79;91.14;102024.41;5057347;28;20029;-64
2021/10/12 07:08:20;;;;;;;15.73;3.50;;;;;;;11.84;90.79;102025.53;5057202;28;20151;-64
2021/10/12 07:10:45;;;;;;;16.23;3.20;;;;;;;11.92;90.12;102024.75;5057310;28;20028;-64
2021/10/12 07:13:13;;;;;;;10.95;3.20;;;;;;;12.01;89.79;102028.94;5055907;28;20033;-64
2021/10/12 07:15:38;;;;;;;10.55;3.40;;;;;;;12.14;89.24;102023.22;5059407;28;20108;-63
2021/10/12 07:18:03;;;;;;;14.55;3.95;;;;;;;12.36;88.67;102024.28;5057411;28;20074;-64
2021/10/12 07:20:29;;;;;;;15.13;3.78;;;;;;;12.43;87.82;102022.66;5056038;28;20024;-64
2021/10/12 07:22:54;;;;;;;13.02;3.67;;;;;;;12.57;87.82;102014.16;5056972;28;20503;-64
2021/10/12 07:25:19;;;;;;;13.88;3.55;;;;;;;12.72;87.95;102014.22;5056812;28;20029;-64
2021/10/12 07:27:46;;;;;;;11.60;3.30;;;;;;;13.10;86.10;102017.72;5055456;28;20032;-64
2021/10/12 07:30:11;;;;;;;16.83;3.67;;;;;;;13.82;82.90;102018.28;5057065;28;20101;-65
2021/10/12 07:32:37;;;;;;;13.25;2.80;;;;;;;13.62;83.55;102018.78;5056741;28;20107;-65
2021/10/12 07:35:05;;;;;;;13.63;4.03;;;;;;;13.06;85.84;102019.06;5056944;28;20399;-64
2021/10/12 07:37:30;;;;;;;13.13;2.95;;;;;;;12.73;88.06;102009.84;5057152;28;20460;-64
2021/10/12 07:39:55;;;;;;;10.65;3.75;;;;;;;12.54;87.80;102013.66;5056994;28;20052;-64
2021/10/12 07:42:20;;;;;;;14.43;3.60;;;;;;;12.52;89.18;102008.66;5056464;28;20495;-62
2021/10/12 07:44:46;;;;;;;10.82;2.88;;;;;;;12.50;88.85;102007.22;5056859;28;20102;-63
2021/10/12 07:47:11;;;;;;;16.02;3.30;;;;;;;12.40;89.46;101999.66;5056787;28;20020;-64
2021/10/12 07:49:37;;;;;;;14.45;3.80;;;;;;;12.19;90.35;101988.03;5056399;28;20094;-65
2021/10/12 07:52:07;;;;;;;12.18;2.97;;;;;;;12.29;90.86;102006.00;5056733;28;20021;-66
2021/10/12 07:54:45;;;;;;;12.98;2.90;;;;;;;12.31;90.73;102005.81;5056486;28;20025;-66
2021/10/12 07:57:13;;;;;;;13.77;3.30;;;;;;;12.34;90.16;102008.91;5056975;28;20025;-65
2021/10/12 07:59:39;;;;;;;15.85;3.60;;;;;;;12.44;90.20;102007.91;5056497;28;20420;-65
2021/10/12 08:02:06;;;;;;;14.00;3.45;;;;;;;12.63;89.18;101997.91;5056112;28;20100;-65
2021/10/12 08:04:31;;;;;;;13.25;3.22;;;;;;;12.64;89.31;101996.91;5056017;28;20487;-66
2021/10/12 08:06:57;;;;;;;17.58;3.67;;;;;;;12.67;88.92;101990.59;5056051;28;20029;-66
2021/10/12 08:09:22;;;;;;;16.50;3.63;;;;;;;12.82;88.97;101995.84;5056356;28;20100;-66
2021/10/12 08:11:48;;;;;;;18.25;3.53;;;;;;;12.90;88.58;102003.59;5037783;28;20072;-66
2021/10/12 08:14:17;;;;;;;17.15;3.15;;;;;;;12.62;89.53;101995.47;5056368;28;20024;-66
2021/10/12 08:16:44;;;;;;;11.60;3.40;;;;;;;12.57;89.29;101987.38;5055981;28;20384;-66
2021/10/12 08:19:09;;;;;;;17.35;3.03;;;;;;;12.61;89.21;101973.94;5055977;28;20099;-66
2021/10/12 08:21:35;;;;;;;13.52;2.95;;;;;;;12.52;89.81;101982.72;5055781;28;20117;-66
2021/10/12 08:24:02;;;;;;;11.07;2.47;;;;;;;12.46;89.23;101980.81;5055847;28;20035;-66
2021/10/12 08:26:28;;;;;;;17.38;2.83;;;;;;;12.44;89.80;101987.16;5055874;28;20115;-66
2021/10/12 08:28:53;;;;;;;10.68;2.78;;;;;;;12.36;90.16;101990.56;5055755;28;20095;-65
2021/10/12 08:31:19;;;;;;;16.33;2.63;;;;;;;12.49;90.10;101993.44;5055718;28;20108;-67
2021/10/12 08:33:45;;;;;;;14.20;2.65;;;;;;;12.51;89.74;102001.03;5055590;28;20440;-65
2021/10/12 08:36:11;;;;;;;15.93;2.70;;;;;;;12.50;90.58;102002.84;5055478;28;20083;-65
2021/10/12 08:38:41;;;;;;;15.90;2.60;;;;;;;12.35;89.92;102002.75;5055529;28;20029;-65
2021/10/12 08:41:07;;;;;;;13.23;2.40;;;;;;;12.30;89.98;102004.22;5053970;28;20506;-65
2021/10/12 08:43:38;;;;;;;13.00;2.33;;;;;;;12.20;90.60;102009.63;5055777;28;20025;-65
2021/10/12 08:46:05;;;;;;;12.38;2.30;;;;;;;12.20;90.73;102012.19;5055454;28;20033;-66
2021/10/12 08:48:35;;;;;;;19.45;2.88;;;;;;;12.17;90.92;102000.38;5055468;28;20096;-66
2021/10/12 08:51:02;;;;;;;15.48;2.70;;;;;;;12.11;90.88;101993.28;5055642;28;20053;-66
2021/10/12 08:53:29;;;;;;;9.13;1.65;;;;;;;12.17;91.20;102007.34;5055568;28;20099;-66
2021/10/12 08:55:59;;;;;;;6.50;1.85;;;;;;;11.91;91.85;101979.91;5055293;28;20159;-65
2021/10/12 08:58:25;;;;;;;10.60;1.90;;;;;;;11.93;91.73;101974.53;5055450;28;20029;-66
2021/10/12 09:01:08;;;;;;;6.78;1.80;;;;;;;12.18;90.52;102002.00;5055085;28;20048;-66
2021/10/12 09:06:32;;;;;;;5.20;1.30;;;;;;;12.39;89.72;102000.59;5056005;28;20040;-65
2021/10/12 09:09:04;;;;;;;6.30;1.70;;;;;;;12.74;89.35;101994.09;5055316;28;20033;-66
2021/10/12 09:11:30;;;;;;;6.38;1.70;;;;;;;12.81;88.32;101973.50;5055271;28;20104;-65
2021/10/12 09:14:07;;;;;;;8.85;1.73;;;;;;;13.31;87.06;101985.13;5054878;28;20028;-66
2021/10/12 09:16:37;;;;;;;7.20;1.80;;;;;;;14.15;84.01;101980.53;5055076;28;20464;-66
2021/10/12 09:19:05;;;;;;;11.25;1.70;;;;;;;13.98;85.52;101979.09;5054833;28;20021;-66
2021/10/12 09:21:42;;;;;;;7.18;1.65;;;;;;;13.64;86.00;101971.88;5054723;28;20029;-66
2021/10/12 09:24:08;;;;;;;8.65;1.55;;;;;;;13.57;86.06;101971.75;5036965;28;20124;-66
2021/10/12 09:26:36;;;;;;;6.72;1.70;;;;;;;13.49;85.75;101972.66;5055013;28;20063;-66
2021/10/12 09:29:06;;;;;;;5.72;1.40;;;;;;;13.39;87.20;101982.47;5054656;28;20025;-66
2021/10/12 09:31:38;;;;;;;5.80;1.40;;;;;;;13.32;87.89;101976.34;5054582;28;20048;-66
2021/10/12 09:34:06;;;;;;;5.03;1.00;;;;;;;13.56;86.60;101969.34;5055020;28;20116;-66
2021/10/12 09:36:36;;;;;;;7.22;1.52;;;;;;;14.39;84.83;101963.81;5054430;28;20040;-65
2021/10/12 09:39:04;;;;;;;5.20;1.42;;;;;;;17.70;70.43;101941.19;5054749;28;20028;-65
2021/10/12 09:41:30;;;;;;;6.13;1.33;;;;;;;16.33;72.71;101953.00;5052796;28;20041;-66
2021/10/12 09:44:15;;;;;;;6.38;1.20;;;;;;;24.31;50.10;101958.81;5054653;28;20025;-67
2021/10/12 09:46:52;;;;;;;5.72;1.10;;;;;;;25.53;46.51;101955.44;5053107;28;20029;-67
2021/10/12 09:49:20;;;;;;;4.85;0.95;;;;;;;23.98;50.07;101962.47;5054098;28;20024;-66
2021/10/12 09:52:03;;;;;;;4.57;1.23;;;;;;;24.99;47.37;101956.47;5054180;28;20472;-67
2021/10/12 09:54:30;;;;;;;4.20;1.38;;;;;;;22.83;54.42;101957.75;5054157;28;20021;-66
2021/10/12 09:56:57;;;;;;;6.78;1.67;;;;;;;20.73;59.92;101950.97;5052817;28;20048;-66
2021/10/12 09:59:23;;;;;;;4.22;1.10;;;;;;;17.30;71.02;101954.34;5054247;28;20023;-66
2021/10/12 10:01:48;;;;;;;11.25;1.25;;;;;;;17.99;69.59;101960.84;5054226;28;20029;-66
2021/10/12 10:04:19;;;;;;;4.75;1.25;;;;;;;21.48;57.90;101956.59;5052730;28;20025;-65
2021/10/12 10:06:47;;;;;;;4.22;1.10;;;;;;;19.79;61.58;101957.69;5054455;28;20353;-66
2021/10/12 10:09:13;;;;;;;7.45;1.08;;;;;;;16.73;73.17;101964.34;5053848;28;20021;-67
2021/10/12 10:11:39;;;;;;;5.50;1.60;;;;;;;15.87;77.39;101957.03;5053945;28;20100;-66
2021/10/12 10:14:09;;;;;;;6.55;1.23;;;;;;;15.70;76.66;101963.56;5052514;28;20070;-67
2021/10/12 10:16:38;;;;;;;6.47;1.02;;;;;;;16.13;76.11;101956.34;5054038;28;20029;-66
2021/10/12 10:19:08;;;;;;;6.45;1.30;;;;;;;15.55;78.10;101966.25;5054190;28;20044;-64
2021/10/12 10:21:37;;;;;;;8.02;1.10;;;;;;;14.56;80.88;101966.25;5053891;28;20067;-64
2021/10/12 10:24:08;;;;;;;3.92;0.95;;;;;;;14.38;82.29;101971.78;5053738;28;20476;-65
2021/10/12 10:26:39;;;;;;;4.38;0.88;;;;;;;14.22;80.67;101978.81;5053929;28;20025;-65
2021/10/12 10:29:25;;;;;;;3.35;0.73;;;;;;;14.33;79.78;101974.16;5053854;28;20384;-66
2021/10/12 10:32:00;;;;;;;2.97;0.82;;;;;;;14.80;78.74;101972.88;5053539;28;20093;-66
2021/10/12 10:34:31;;;;;;;4.30;0.63;;;;;;;15.15;77.50;101970.38;5053209;28;20144;-66
2021/10/12 10:37:15;;;;;;;2.92;0.68;;;;;;;15.68;75.80;101968.16;5051931;28;20033;-66
2021/10/12 10:39:41;;;;;;;3.97;0.68;;;;;;;16.28;74.75;101964.03;5052728;28;20040;-66
2021/10/12 10:42:06;;;;;;;4.15;1.10;;;;;;;16.76;71.45;101966.59;5053121;28;20488;-66
2021/10/12 10:44:59;;;;;;;6.93;0.82;;;;;;;17.14;71.00;101969.41;5053544;28;20429;-65
2021/10/12 10:47:40;;;;;;;5.30;1.02;;;;;;;17.71;67.94;101979.38;5054404;28;20082;-67
2021/10/12 10:50:17;;;;;;;4.80;0.80;;;;;;;18.73;64.60;101988.22;5053669;28;20415;-67
2021/10/12 10:52:45;;;;;;;2.25;0.80;;;;;;;17.27;71.15;101980.88;5053826;28;20128;-67
2021/10/12 10:55:18;;;;;;;4.57;1.45;;;;;;;16.97;69.84;101977.84;5053555;28;20021;-66
2021/10/12 10:58:02;;;;;;;;;;;;;;;16.47;72.11;101972.91;5054032;28;20040;-67
2021/10/12 11:00:29;;;;;;;1.90;1.00;;;;;;;17.94;69.16;101974.53;5053305;28;19912;-67
2021/10/12 11:02:55;;;;;;;4.75;1.40;;;;;;;17.08;72.18;101975.44;5053248;28;20033;-67
2021/10/12 11:05:38;;;;;;;5.25;0.80;;;;;;;16.85;72.07;101975.03;5053530;28;20460;-67
2021/10/12 11:08:15;;;;;;;4.13;0.98;;;;;;;17.56;69.00;101980.44;5053312;28;20021;-68
2021/10/12 11:10:42;;;;;;;4.53;1.20;;;;;;;16.20;70.95;101980.66;5053721;28;20367;-68
2021/10/12 11:13:07;;;;;;;4.60;0.80;;;;;;;15.61;73.92;101978.53;5057605;28;20028;-71
2021/10/12 11:15:33;;;;;;;4.65;0.95;;;;;;;15.56;73.34;101979.13;5059338;28;20376;-68
2021/10/12 11:18:08;;;;;;;10.88;1.20;;;;;;;15.84;71.26;101982.69;5060312;28;20032;-69
2021/10/12 11:20:45;;;;;;;4.68;1.15;;;;;;;15.93;71.15;101986.75;5059068;28;20017;-71
2021/10/12 11:23:13;;;;;;;6.53;0.90;;;;;;;16.00;69.75;101977.19;5057852;28;20036;-72
2021/10/12 11:25:40;;;;;;;5.55;1.33;;;;;;;15.83;69.80;101986.31;5058845;28;20029;-70
2021/10/12 11:28:12;;;;;;;5.25;0.90;;;;;;;16.62;68.08;101976.16;5058880;28;20360;-69